Time;durP1;ratioP1;P1;durP2;ratioP2;P2;SDS_P1;SDS_P2;PMS_P1;PMS_P2;Temp;Humidity;BMP_temperature;BMP_pressure;BME280_temperature;BME280_humidity;BME280_pressure;Samples;Min_cycle;Max_cycle;Signal;HPM_P1;HPM_P2
2020/12/20 00:00:24;;;;;;;4.40;2.88;;;17.70;59.90;;;;;;5075180;28;20648;-81
2020/12/20 00:02:54;;;;;;;4.68;2.67;;;17.70;59.90;;;;;;5076377;28;20240;-81
2020/12/20 00:05:31;;;;;;;5.00;2.80;;;17.70;60.10;;;;;;5078979;28;20150;-82
2020/12/20 00:07:58;;;;;;;6.05;2.90;;;17.70;60.00;;;;;;5061235;28;20157;-81
2020/12/20 00:10:25;;;;;;;9.57;3.00;;;17.70;60.00;;;;;;5079156;28;20172;-80
2020/12/20 00:12:52;;;;;;;7.38;2.55;;;17.70;59.80;;;;;;5061104;28;20215;-82
2020/12/20 00:15:18;;;;;;;9.20;3.05;;;17.70;59.90;;;;;;5060585;28;20153;-82
2020/12/20 00:17:48;;;;;;;3.80;2.78;;;17.70;59.80;;;;;;5060600;28;20158;-79
2020/12/20 00:20:15;;;;;;;6.57;2.63;;;17.70;60.10;;;;;;5060662;28;20185;-82
2020/12/20 00:22:41;;;;;;;3.55;2.83;;;17.70;59.90;;;;;;5060982;28;20158;-81
2020/12/20 00:25:08;;;;;;;4.88;2.90;;;17.70;60.20;;;;;;5078616;28;20642;-83
2020/12/20 00:27:34;;;;;;;8.07;3.00;;;17.70;60.00;;;;;;5043563;28;20169;-81
2020/12/20 00:30:00;;;;;;;5.10;2.70;;;17.70;60.00;;;;;;5060414;28;20547;-80
2020/12/20 00:32:27;;;;;;;5.10;2.75;;;17.60;60.10;;;;;;5060527;28;20170;-82
2020/12/20 00:34:53;;;;;;;4.43;2.60;;;17.60;60.10;;;;;;5078422;28;20158;-80
2020/12/20 00:37:19;;;;;;;4.93;2.88;;;17.60;60.30;;;;;;5060476;28;20156;-80
2020/12/20 00:39:54;;;;;;;5.82;3.00;;;17.60;60.50;;;;;;5060587;28;20189;-81
2020/12/20 00:42:21;;;;;;;5.80;3.13;;;17.60;60.40;;;;;;5060926;28;20707;-82
2020/12/20 00:44:47;;;;;;;4.53;2.67;;;17.60;60.50;;;;;;5078608;28;20169;-82
2020/12/20 00:47:22;;;;;;;5.13;2.90;;;17.60;60.40;;;;;;5078813;28;20157;-82
2020/12/20 00:49:48;;;;;;;5.47;3.00;;;17.60;60.00;;;;;;5060351;28;20161;-80
2020/12/20 00:52:14;;;;;;;5.45;3.08;;;17.60;60.10;;;;;;5078664;28;20189;-80
2020/12/20 00:54:41;;;;;;;5.53;3.00;;;17.60;60.30;;;;;;5060437;28;20154;-82
2020/12/20 00:57:08;;;;;;;5.05;2.92;;;17.60;60.60;;;;;;5060073;28;20240;-82
2020/12/20 00:59:34;;;;;;;6.40;3.03;;;17.60;60.20;;;;;;5077544;28;20192;-80
2020/12/20 01:02:01;;;;;;;5.32;2.83;;;17.60;60.10;;;;;;5078413;28;20255;-79
2020/12/20 01:04:28;;;;;;;5.43;3.00;;;17.60;60.20;;;;;;5078122;28;20164;-82
2020/12/20 01:06:59;;;;;;;5.40;3.22;;;17.60;60.40;;;;;;5077957;28;20160;-80
2020/12/20 01:09:36;;;;;;;4.63;2.80;;;17.60;60.40;;;;;;5059953;28;20620;-81
2020/12/20 01:12:03;;;;;;;5.25;2.75;;;17.60;60.30;;;;;;5077735;28;20319;-79
2020/12/20 01:14:29;;;;;;;4.90;3.45;;;17.60;60.20;;;;;;5077688;28;20647;-82
2020/12/20 01:16:57;;;;;;;6.28;3.00;;;17.60;60.50;;;;;;5077977;28;20191;-82
2020/12/20 01:19:24;;;;;;;4.93;3.10;;;17.60;60.30;;;;;;5059974;28;20556;-82
2020/12/20 01:21:50;;;;;;;6.05;3.10;;;17.60;60.40;;;;;;5077760;28;20616;-81
2020/12/20 01:24:16;;;;;;;5.00;2.72;;;17.60;60.40;;;;;;5059767;28;20154;-82
2020/12/20 01:26:43;;;;;;;4.68;2.95;;;17.60;60.40;;;;;;5077626;28;20180;-82
2020/12/20 01:29:10;;;;;;;4.63;3.00;;;17.60;60.20;;;;;;5078223;28;20189;-80
2020/12/20 01:31:36;;;;;;;6.85;2.88;;;17.60;60.50;;;;;;5077643;28;20240;-80
2020/12/20 01:34:03;;;;;;;5.28;3.10;;;17.50;61.20;;;;;;5077946;28;20663;-83
2020/12/20 01:36:32;;;;;;;4.45;2.80;;;17.60;60.40;;;;;;5077367;28;20620;-82
2020/12/20 01:38:58;;;;;;;4.45;2.60;;;17.60;60.30;;;;;;5055765;28;20218;-81
2020/12/20 01:41:32;;;;;;;5.32;3.40;;;17.50;60.50;;;;;;5055566;28;20167;-82
2020/12/20 01:43:59;;;;;;;6.03;3.03;;;17.50;60.40;;;;;;5055981;28;20165;-81
2020/12/20 01:46:25;;;;;;;5.18;2.70;;;17.50;60.50;;;;;;5055960;28;20165;-80
2020/12/20 01:48:52;;;;;;;4.38;2.95;;;17.50;60.40;;;;;;5057002;28;20158;-83
2020/12/20 01:51:19;;;;;;;5.85;3.00;;;17.50;60.30;;;;;;5057376;28;20208;-82
2020/12/20 01:53:46;;;;;;;4.65;2.80;;;17.60;60.40;;;;;;5056128;28;20178;-81
2020/12/20 01:56:20;;;;;;;4.82;3.30;;;17.60;60.40;;;;;;5055574;28;20159;-80
2020/12/20 01:58:47;;;;;;;5.20;3.00;;;17.50;60.40;;;;;;5055235;28;20161;-82
2020/12/20 02:01:22;;;;;;;5.30;2.83;;;17.50;60.50;;;;;;5055779;28;20507;-81
2020/12/20 02:03:48;;;;;;;6.68;3.08;;;17.50;60.50;;;;;;5056934;28;20620;-82
2020/12/20 02:06:22;;;;;;;5.07;3.03;;;17.50;60.50;;;;;;5055390;28;20166;-81
2020/12/20 02:08:49;;;;;;;5.90;2.83;;;17.50;60.70;;;;;;5055083;28;20193;-81
2020/12/20 02:11:16;;;;;;;4.25;2.63;;;17.50;60.70;;;;;;5038795;28;20650;-80
2020/12/20 02:13:43;;;;;;;4.75;3.00;;;17.50;60.70;;;;;;5055836;28;20193;-81
2020/12/20 02:16:13;;;;;;;6.22;2.88;;;17.50;61.40;;;;;;5056638;28;20151;-82
2020/12/20 02:18:39;;;;;;;5.85;3.10;;;17.50;60.70;;;;;;5056835;28;20166;-79
2020/12/20 02:21:11;;;;;;;3.88;2.95;;;17.50;60.80;;;;;;5055790;28;20189;-80
2020/12/20 02:23:47;;;;;;;6.93;3.03;;;17.50;60.70;;;;;;5055463;28;20239;-80
2020/12/20 02:26:21;;;;;;;4.63;2.80;;;17.50;60.70;;;;;;5056082;28;20236;-81
2020/12/20 02:28:51;;;;;;;5.80;3.33;;;17.50;60.70;;;;;;5055010;28;20236;-81
2020/12/20 02:31:18;;;;;;;5.40;3.00;;;17.50;60.70;;;;;;5054708;28;20173;-82
2020/12/20 02:33:44;;;;;;;5.38;3.10;;;17.50;60.60;;;;;;5056585;28;20154;-82
2020/12/20 02:36:11;;;;;;;4.85;2.90;;;17.50;60.70;;;;;;5037954;28;20162;-82
2020/12/20 02:38:37;;;;;;;5.47;2.92;;;17.50;60.60;;;;;;5068152;28;20227;-80
2020/12/20 02:41:03;;;;;;;5.68;3.08;;;17.50;60.50;;;;;;5058159;28;20193;-80
2020/12/20 02:43:30;;;;;;;4.22;2.80;;;17.50;60.60;;;;;;5057992;28;20165;-81
2020/12/20 02:45:56;;;;;;;7.57;2.92;;;17.50;60.60;;;;;;5058051;28;20620;-81
2020/12/20 02:48:23;;;;;;;4.85;2.90;;;17.50;60.60;;;;;;5057855;28;20179;-81
2020/12/20 02:50:49;;;;;;;4.53;3.03;;;17.50;60.40;;;;;;5057856;28;20150;-81
2020/12/20 02:53:24;;;;;;;7.93;3.00;;;17.50;60.50;;;;;;5057746;28;20274;-81
2020/12/20 02:55:50;;;;;;;7.10;3.22;;;17.50;60.70;;;;;;5075770;28;20157;-79
2020/12/20 02:58:17;;;;;;;3.83;2.88;;;17.50;60.50;;;;;;5076303;28;20162;-81
2020/12/20 03:00:43;;;;;;;5.53;3.10;;;17.50;60.50;;;;;;5075638;28;20251;-81
2020/12/20 03:03:18;;;;;;;4.25;2.80;;;17.50;60.50;;;;;;5040931;28;20173;-82
2020/12/20 03:05:46;;;;;;;6.57;3.13;;;17.50;60.70;;;;;;5057772;28;20510;-79
2020/12/20 03:08:20;;;;;;;6.88;2.75;;;17.40;60.80;;;;;;5075833;28;20161;-80
2020/12/20 03:10:47;;;;;;;5.25;3.08;;;17.40;60.80;;;;;;5075711;28;20650;-81
2020/12/20 03:13:13;;;;;;;4.75;3.42;;;17.40;60.80;;;;;;5075666;28;20169;-79
2020/12/20 03:15:42;;;;;;;4.32;2.92;;;17.50;60.80;;;;;;5075619;28;20672;-79
2020/12/20 03:18:09;;;;;;;5.75;3.10;;;17.40;60.70;;;;;;5075132;28;20158;-81
2020/12/20 03:20:35;;;;;;;4.32;2.88;;;17.40;60.70;;;;;;5075337;28;20650;-80
2020/12/20 03:23:04;;;;;;;5.63;3.08;;;17.40;60.80;;;;;;5075505;28;20164;-81
2020/12/20 03:25:31;;;;;;;5.30;3.40;;;17.40;60.70;;;;;;5057594;28;20303;-81
2020/12/20 03:27:57;;;;;;;3.80;2.80;;;17.40;60.90;;;;;;5075659;28;20219;-81
2020/12/20 03:30:24;;;;;;;4.93;3.08;;;17.40;60.90;;;;;;5057388;28;20157;-79
2020/12/20 03:32:50;;;;;;;6.22;2.95;;;17.40;60.90;;;;;;5056909;28;20161;-81
2020/12/20 03:35:17;;;;;;;6.57;3.00;;;17.40;60.80;;;;;;5057172;28;20588;-79
2020/12/20 03:37:53;;;;;;;5.15;3.47;;;17.40;60.90;;;;;;5079075;28;20180;-81
2020/12/20 03:40:29;;;;;;;5.78;2.97;;;17.40;60.60;;;;;;5079304;28;20180;-80
2020/12/20 03:42:55;;;;;;;4.95;2.90;;;17.40;60.70;;;;;;5061562;28;20177;-80
2020/12/20 03:45:23;;;;;;;4.13;2.88;;;17.40;60.90;;;;;;5079528;28;20178;-81
2020/12/20 03:47:49;;;;;;;5.07;3.08;;;17.40;60.60;;;;;;5079276;28;20631;-79
2020/12/20 03:50:24;;;;;;;4.65;3.20;;;17.40;60.80;;;;;;5079456;28;20158;-80
2020/12/20 03:52:50;;;;;;;4.65;2.92;;;17.40;60.70;;;;;;5060895;28;20635;-80
2020/12/20 03:55:17;;;;;;;4.65;3.10;;;17.40;60.90;;;;;;5079242;28;20673;-81
2020/12/20 03:57:43;;;;;;;4.95;3.20;;;17.40;60.90;;;;;;5061082;28;20176;-81
2020/12/20 04:00:10;;;;;;;5.18;3.05;;;17.40;60.70;;;;;;5078599;28;20243;-81
2020/12/20 04:02:37;;;;;;;5.70;3.10;;;17.40;60.80;;;;;;5060776;28;20568;-81
2020/12/20 04:05:11;;;;;;;4.63;3.15;;;17.40;60.60;;;;;;5060801;28;20153;-82
2020/12/20 04:07:38;;;;;;;3.58;3.00;;;17.40;60.80;;;;;;5060875;28;20607;-80
2020/12/20 04:10:04;;;;;;;4.38;3.15;;;17.40;60.80;;;;;;5078669;28;20157;-79
2020/12/20 04:12:31;;;;;;;6.90;2.90;;;17.40;60.90;;;;;;5078849;28;20638;-81
2020/12/20 04:14:57;;;;;;;6.90;3.10;;;17.40;60.70;;;;;;5060377;28;20197;-79
2020/12/20 04:17:24;;;;;;;4.55;3.10;;;17.40;60.70;;;;;;5078808;28;20154;-82
2020/12/20 04:19:51;;;;;;;6.13;3.40;;;17.40;60.60;;;;;;5078054;28;20185;-81
2020/12/20 04:22:17;;;;;;;6.13;3.15;;;17.40;60.60;;;;;;5078261;28;20153;-79
2020/12/20 04:24:44;;;;;;;4.50;2.95;;;17.40;60.70;;;;;;5078765;28;20170;-82
2020/12/20 04:27:10;;;;;;;4.63;2.95;;;17.40;60.70;;;;;;5078483;28;20153;-79
2020/12/20 04:29:37;;;;;;;5.90;3.05;;;17.40;60.70;;;;;;5060480;28;20162;-81
2020/12/20 04:32:04;;;;;;;4.88;2.90;;;17.40;61.60;;;;;;5078568;28;20635;-79
2020/12/20 04:34:30;;;;;;;4.82;3.33;;;17.40;60.70;;;;;;5060469;28;20624;-82
2020/12/20 04:36:57;;;;;;;3.72;3.10;;;17.40;60.70;;;;;;5060184;28;20184;-80
2020/12/20 04:39:24;;;;;;;5.47;3.20;;;17.40;60.90;;;;;;5059649;28;20228;-80
2020/12/20 04:41:50;;;;;;;4.07;3.00;;;17.40;60.80;;;;;;5060140;28;20165;-80
2020/12/20 04:44:16;;;;;;;5.78;3.25;;;17.40;60.70;;;;;;5077948;28;20185;-81
2020/12/20 04:46:42;;;;;;;5.28;2.92;;;17.40;60.80;;;;;;5060030;28;20279;-81
2020/12/20 04:49:10;;;;;;;5.13;3.17;;;17.40;60.90;;;;;;5059506;28;20154;-81
2020/12/20 04:51:36;;;;;;;4.05;2.90;;;17.40;60.80;;;;;;5059645;28;20156;-80
2020/12/20 04:54:03;;;;;;;5.03;3.08;;;17.40;60.70;;;;;;5043003;28;20162;-82
2020/12/20 04:56:30;;;;;;;6.30;3.42;;;17.40;61.00;;;;;;5059635;28;20188;-79
2020/12/20 04:58:57;;;;;;;6.43;3.13;;;17.40;60.90;;;;;;5059516;28;20154;-81
2020/12/20 05:01:24;;;;;;;4.53;3.03;;;17.40;60.90;;;;;;5043226;28;20169;-80
2020/12/20 05:03:50;;;;;;;4.60;3.25;;;17.40;60.70;;;;;;5077559;28;20154;-82
2020/12/20 05:06:17;;;;;;;4.40;2.97;;;17.40;60.80;;;;;;5077638;28;20643;-80
2020/12/20 05:08:44;;;;;;;6.32;3.45;;;17.40;60.90;;;;;;5059458;28;20158;-80
2020/12/20 05:11:13;;;;;;;3.78;2.70;;;17.30;60.90;;;;;;5077715;28;20162;-80
2020/12/20 05:13:40;;;;;;;4.38;3.00;;;17.30;60.90;;;;;;5059205;28;20271;-80
2020/12/20 05:16:06;;;;;;;6.93;3.10;;;17.30;60.90;;;;;;5059109;28;20210;-81
2020/12/20 05:18:33;;;;;;;4.50;2.92;;;17.40;60.80;;;;;;5059260;28;20157;-81
2020/12/20 05:20:59;;;;;;;5.13;3.20;;;17.40;60.50;;;;;;5077032;28;20208;-81
2020/12/20 05:23:30;;;;;;;4.28;3.05;;;17.40;61.00;;;;;;5077440;28;20161;-80
2020/12/20 05:26:06;;;;;;;4.82;3.10;;;17.40;61.00;;;;;;5076561;28;20232;-81
2020/12/20 05:28:33;;;;;;;4.68;2.90;;;17.40;60.70;;;;;;5058889;28;20199;-81
2020/12/20 05:31:07;;;;;;;4.95;3.20;;;17.40;60.70;;;;;;5076823;28;20158;-81
2020/12/20 05:33:34;;;;;;;5.90;3.40;;;17.40;60.70;;;;;;5076946;28;20616;-80
2020/12/20 05:36:13;;;;;;;5.57;3.60;;;17.40;61.00;;;;;;5058652;28;20176;-80
2020/12/20 05:38:39;;;;;;;4.93;3.00;;;17.30;60.90;;;;;;5058649;28;20225;-80
2020/12/20 05:41:05;;;;;;;4.97;3.28;;;17.30;60.90;;;;;;5058526;28;20191;-81
2020/12/20 05:43:32;;;;;;;4.60;3.00;;;17.40;60.90;;;;;;5058834;28;20162;-82
2020/12/20 05:45:58;;;;;;;4.43;3.08;;;17.30;60.70;;;;;;5077333;28;20168;-81
2020/12/20 05:48:30;;;;;;;4.93;3.00;;;17.40;60.50;;;;;;5077588;28;20180;-81
2020/12/20 05:51:00;;;;;;;4.82;3.10;;;17.40;60.70;;;;;;5077191;28;20162;-80
2020/12/20 05:53:30;;;;;;;5.18;3.17;;;17.40;60.60;;;;;;5042031;28;20197;-81
2020/12/20 05:55:57;;;;;;;5.20;3.22;;;17.40;60.70;;;;;;5077004;28;20157;-81
2020/12/20 05:58:25;;;;;;;5.65;3.20;;;17.40;60.80;;;;;;5059301;28;20638;-80
2020/12/20 06:00:52;;;;;;;5.95;3.05;;;17.40;60.70;;;;;;5058815;28;20197;-79
2020/12/20 06:03:19;;;;;;;7.30;3.00;;;17.40;60.80;;;;;;5059122;28;20154;-80
2020/12/20 06:05:46;;;;;;;5.03;3.60;;;17.40;60.40;;;;;;5058720;28;20601;-80
2020/12/20 06:08:12;;;;;;;4.82;3.08;;;17.40;60.60;;;;;;5077248;28;20157;-79
2020/12/20 06:10:59;;;;;;;5.30;3.10;;;17.40;60.70;;;;;;5076959;28;20157;-80
2020/12/20 06:13:25;;;;;;;3.83;3.08;;;17.40;60.60;;;;;;5073429;28;20165;-79
2020/12/20 06:15:53;;;;;;;3.83;2.90;;;17.40;60.90;;;;;;5077641;28;20153;-81
2020/12/20 06:18:27;;;;;;;4.15;2.95;;;17.40;60.70;;;;;;5059319;28;20157;-80
2020/12/20 06:20:57;;;;;;;6.70;2.97;;;17.40;60.70;;;;;;5058948;28;20219;-82
2020/12/20 06:23:28;;;;;;;4.85;3.22;;;17.30;60.80;;;;;;5058500;28;20154;-82
2020/12/20 06:25:55;;;;;;;4.55;2.95;;;17.30;60.90;;;;;;5076967;28;20149;-81
2020/12/20 06:28:27;;;;;;;4.25;2.90;;;17.40;60.80;;;;;;5058617;28;20204;-80
2020/12/20 06:30:57;;;;;;;5.20;3.17;;;17.40;60.70;;;;;;5059003;28;20188;-81
2020/12/20 06:33:37;;;;;;;4.60;3.00;;;17.40;60.60;;;;;;5076513;28;20154;-80
2020/12/20 06:36:15;;;;;;;4.20;3.10;;;17.40;60.60;;;;;;5059127;28;20176;-80
2020/12/20 06:38:41;;;;;;;4.88;3.15;;;17.40;60.60;;;;;;5076165;28;20590;-79
2020/12/20 06:41:07;;;;;;;5.05;3.05;;;17.40;60.60;;;;;;5058402;28;20703;-81
2020/12/20 06:43:35;;;;;;;4.97;3.00;;;17.40;60.70;;;;;;5041771;28;20169;-81
2020/12/20 06:46:02;;;;;;;5.78;3.08;;;17.30;60.70;;;;;;5076085;28;20154;-81
2020/12/20 06:48:31;;;;;;;5.28;3.10;;;17.40;61.00;;;;;;5076660;28;20632;-80
2020/12/20 06:51:06;;;;;;;4.20;3.10;;;17.30;60.90;;;;;;5076863;28;20161;-79
2020/12/20 06:53:48;;;;;;;5.20;3.20;;;17.30;60.90;;;;;;5076629;28;20193;-80
2020/12/20 06:56:20;;;;;;;4.72;3.17;;;17.30;61.00;;;;;;5076279;28;20188;-81
2020/12/20 06:58:47;;;;;;;4.43;3.15;;;17.30;60.90;;;;;;5076228;28;20169;-80
2020/12/20 07:01:35;;;;;;;4.22;3.20;;;17.30;60.90;;;;;;5058355;28;20651;-80
2020/12/20 07:04:20;;;;;;;5.07;3.00;;;17.30;60.90;;;;;;5076405;28;20253;-80
2020/12/20 07:07:25;;;;;;;5.53;3.33;;;17.30;60.80;;;;;;5057922;28;20583;-79
2020/12/20 07:10:27;;;;;;;4.47;3.10;;;17.30;60.80;;;;;;5075306;28;20197;-81
2020/12/20 07:13:13;;;;;;;4.68;3.10;;;17.40;60.60;;;;;;5074553;28;20184;-80
2020/12/20 07:16:43;;;;;;;4.82;3.20;;;17.40;60.60;;;;;;5076516;28;20153;-79
2020/12/20 07:19:29;;;;;;;5.28;3.33;;;17.40;60.70;;;;;;5033757;28;20193;-80
2020/12/20 07:22:15;;;;;;;5.95;3.63;;;17.40;60.70;;;;;;5034088;28;20178;-79
2020/12/20 07:25:00;;;;;;;4.47;3.38;;;17.30;60.90;;;;;;5034233;28;20159;-79
2020/12/20 07:27:48;;;;;;;6.22;3.53;;;17.40;61.00;;;;;;5017682;28;20189;-82
2020/12/20 07:30:34;;;;;;;6.65;3.30;;;17.40;60.60;;;;;;5036393;28;20245;-80
2020/12/20 07:33:19;;;;;;;5.18;2.95;;;17.40;60.70;;;;;;5038679;28;20187;-80
2020/12/20 07:36:06;;;;;;;4.15;3.30;;;17.40;60.60;;;;;;5039417;28;20170;-80
2020/12/20 07:38:32;;;;;;;4.38;3.17;;;17.30;61.70;;;;;;5035362;28;20226;-82
2020/12/20 07:41:16;;;;;;;5.80;3.60;;;17.30;60.70;;;;;;5019135;28;20754;-80
2020/12/20 07:43:43;;;;;;;4.63;2.90;;;17.40;60.60;;;;;;5020089;28;20159;-79
2020/12/20 07:46:11;;;;;;;4.72;3.42;;;17.40;60.60;;;;;;5036508;28;20634;-81
2020/12/20 07:48:38;;;;;;;5.38;3.33;;;17.40;60.60;;;;;;5035878;28;20167;-81
2020/12/20 07:51:23;;;;;;;5.18;3.00;;;17.40;60.60;;;;;;5002814;28;20171;-81
2020/12/20 07:53:53;;;;;;;5.53;3.30;;;17.30;60.70;;;;;;5036196;28;20189;-79
2020/12/20 07:56:31;;;;;;;4.43;2.97;;;17.40;60.90;;;;;;5058358;28;20155;-81
2020/12/20 07:58:59;;;;;;;4.70;3.17;;;17.30;60.90;;;;;;5040740;28;20185;-81
2020/12/20 08:01:26;;;;;;;5.40;3.10;;;17.30;60.90;;;;;;5040510;28;20173;-81
2020/12/20 08:04:22;;;;;;;4.03;3.10;;;17.30;60.80;;;;;;5040479;28;20158;-80
2020/12/20 08:06:50;;;;;;;4.85;3.42;;;17.30;60.90;;;;;;5072928;28;20159;-81
2020/12/20 08:09:18;;;;;;;4.13;3.08;;;17.30;60.90;;;;;;5057789;28;20232;-79
2020/12/20 08:11:45;;;;;;;4.00;3.30;;;17.30;60.90;;;;;;5059170;28;20154;-81
2020/12/20 08:14:17;;;;;;;5.20;3.17;;;17.30;60.90;;;;;;5028077;28;20197;-81
2020/12/20 08:16:48;;;;;;;4.70;3.20;;;17.30;61.00;;;;;;5061277;28;20166;-81
2020/12/20 08:19:31;;;;;;;4.32;3.10;;;17.30;60.90;;;;;;5062100;28;20230;-81
2020/12/20 08:22:04;;;;;;;4.97;3.47;;;17.30;60.60;;;;;;5028470;28;20170;-81
2020/12/20 08:24:35;;;;;;;4.47;3.25;;;17.30;60.60;;;;;;5065010;28;20151;-81
2020/12/20 08:27:21;;;;;;;5.53;3.30;;;17.30;60.80;;;;;;5048500;28;20562;-81
2020/12/20 08:29:49;;;;;;;5.75;3.15;;;17.30;60.70;;;;;;5049376;28;20158;-81
2020/12/20 08:32:37;;;;;;;6.22;3.60;;;17.40;60.60;;;;;;5048273;28;20769;-81
2020/12/20 08:35:21;;;;;;;5.35;3.35;;;17.40;60.40;;;;;;5065646;28;20155;-81
2020/12/20 08:37:53;;;;;;;6.75;3.60;;;17.40;60.40;;;;;;5034549;28;20630;-81
2020/12/20 08:40:20;;;;;;;7.22;3.90;;;17.40;60.50;;;;;;5069891;28;20200;-81
2020/12/20 08:42:47;;;;;;;5.45;3.50;;;17.40;60.30;;;;;;5069248;28;20635;-81
2020/12/20 08:45:21;;;;;;;5.35;3.10;;;17.50;60.40;;;;;;5087368;28;20164;-81
2020/12/20 08:47:49;;;;;;;5.68;3.40;;;17.40;60.50;;;;;;5087240;28;20158;-81
2020/12/20 08:50:22;;;;;;;5.50;3.35;;;17.40;60.30;;;;;;5088124;28;20156;-80
2020/12/20 08:53:07;;;;;;;4.93;3.33;;;17.40;60.30;;;;;;5087283;28;20158;-80
2020/12/20 08:55:34;;;;;;;5.05;3.35;;;17.40;59.90;;;;;;5069307;28;20154;-81
2020/12/20 08:58:07;;;;;;;4.70;3.47;;;17.50;60.10;;;;;;5053564;28;20177;-81
2020/12/20 09:00:37;;;;;;;5.57;3.70;;;17.40;60.30;;;;;;5070287;28;20248;-80
2020/12/20 09:03:04;;;;;;;4.55;3.50;;;17.40;60.60;;;;;;5087763;28;20165;-81
2020/12/20 09:05:37;;;;;;;4.75;3.13;;;17.40;60.80;;;;;;5069482;28;20508;-81
2020/12/20 09:08:05;;;;;;;4.55;3.30;;;17.40;61.00;;;;;;5070845;28;20161;-80
2020/12/20 09:10:35;;;;;;;5.10;3.33;;;17.40;61.00;;;;;;5082356;28;20153;-81
2020/12/20 09:13:02;;;;;;;5.20;3.88;;;17.40;61.10;;;;;;5081444;28;20157;-80
2020/12/20 09:15:39;;;;;;;5.88;3.80;;;17.40;61.00;;;;;;5081355;28;20622;-80
2020/12/20 09:18:25;;;;;;;4.40;3.10;;;17.30;61.10;;;;;;5062887;28;20239;-82
2020/12/20 09:20:52;;;;;;;4.50;3.35;;;17.30;61.20;;;;;;5080559;28;20173;-81
2020/12/20 09:23:19;;;;;;;4.93;3.42;;;17.30;61.10;;;;;;5062345;28;20166;-81
2020/12/20 09:25:46;;;;;;;4.30;3.40;;;17.30;61.20;;;;;;5079256;28;20158;-79
2020/12/20 09:28:32;;;;;;;3.85;3.25;;;17.30;61.20;;;;;;5061289;28;20153;-80
2020/12/20 09:30:59;;;;;;;6.68;3.25;;;17.40;60.90;;;;;;5078379;28;20150;-80
2020/12/20 09:33:28;;;;;;;5.22;3.65;;;17.40;60.70;;;;;;5062975;28;20164;-82
2020/12/20 09:36:15;;;;;;;7.00;3.15;;;17.40;60.70;;;;;;5065158;28;20161;-83
2020/12/20 09:38:42;;;;;;;6.32;3.22;;;17.40;60.70;;;;;;5082442;28;20242;-82
2020/12/20 09:41:20;;;;;;;3.80;2.92;;;17.40;60.60;;;;;;5083674;28;20197;-82
2020/12/20 09:44:06;;;;;;;7.72;3.15;;;17.40;60.70;;;;;;5081485;28;20157;-82
2020/12/20 09:46:52;;;;;;;6.50;3.20;;;17.30;60.80;;;;;;5079076;28;20161;-82
2020/12/20 09:49:19;;;;;;;4.72;3.58;;;17.30;60.70;;;;;;5078729;28;20358;-82
2020/12/20 09:51:45;;;;;;;4.68;3.15;;;17.40;60.90;;;;;;5079303;28;20272;-82
2020/12/20 09:54:12;;;;;;;4.60;3.08;;;17.40;61.80;;;;;;5079745;28;20608;-82
2020/12/20 09:56:41;;;;;;;4.18;2.92;;;17.40;60.90;;;;;;5079529;28;20169;-82
2020/12/20 09:59:07;;;;;;;4.38;3.30;;;17.40;61.00;;;;;;5079370;28;20639;-82
2020/12/20 10:01:34;;;;;;;5.95;3.40;;;17.30;61.00;;;;;;5079862;28;20153;-82
2020/12/20 10:04:00;;;;;;;4.10;3.22;;;17.40;60.90;;;;;;5079320;28;20146;-82
2020/12/20 10:06:27;;;;;;;6.65;3.80;;;17.40;61.00;;;;;;5061755;28;20157;-82
2020/12/20 10:08:54;;;;;;;6.32;3.55;;;17.30;60.90;;;;;;5079670;28;20146;-82
2020/12/20 10:11:21;;;;;;;6.03;3.55;;;17.40;60.90;;;;;;5080126;28;20166;-83
2020/12/20 10:13:47;;;;;;;5.38;3.38;;;17.40;60.90;;;;;;5061829;28;20634;-82
2020/12/20 10:16:24;;;;;;;4.65;3.55;;;17.40;60.80;;;;;;5079437;28;20165;-81
2020/12/20 10:18:58;;;;;;;5.72;3.20;;;17.40;60.70;;;;;;5080058;28;20213;-81
2020/12/20 10:21:24;;;;;;;4.00;3.03;;;17.40;60.70;;;;;;5061749;28;20636;-82
2020/12/20 10:23:58;;;;;;;4.60;3.38;;;17.40;60.70;;;;;;5079640;28;20180;-82
2020/12/20 10:26:25;;;;;;;5.40;3.42;;;17.40;60.70;;;;;;5081011;28;20165;-81
2020/12/20 10:28:52;;;;;;;4.88;3.50;;;17.40;60.70;;;;;;5078614;28;20199;-82
2020/12/20 10:31:38;;;;;;;5.63;3.28;;;17.40;60.70;;;;;;5079585;28;20169;-82
2020/12/20 10:34:04;;;;;;;4.63;3.30;;;17.40;60.70;;;;;;5077715;28;20168;-83
2020/12/20 10:36:30;;;;;;;5.90;3.65;;;17.40;60.80;;;;;;5079286;28;20215;-83
2020/12/20 10:38:57;;;;;;;6.63;3.47;;;17.40;60.80;;;;;;5077867;28;20220;-82
2020/12/20 10:41:23;;;;;;;4.97;3.42;;;17.40;60.70;;;;;;5061938;28;20208;-82
2020/12/20 10:43:50;;;;;;;6.85;3.78;;;17.40;60.60;;;;;;5077925;28;20158;-81
2020/12/20 10:46:18;;;;;;;3.97;3.22;;;17.40;60.50;;;;;;5078739;28;20154;-81
2020/12/20 10:48:44;;;;;;;4.93;3.20;;;17.40;60.70;;;;;;5079826;28;20149;-82
2020/12/20 10:51:11;;;;;;;4.82;3.40;;;17.40;60.70;;;;;;5082247;28;20196;-82
2020/12/20 10:53:40;;;;;;;5.15;3.80;;;17.40;60.50;;;;;;5081309;28;20158;-82
2020/12/20 10:56:18;;;;;;;6.63;3.88;;;17.50;60.40;;;;;;5082219;28;20157;-81
2020/12/20 10:58:48;;;;;;;4.93;3.28;;;17.50;60.30;;;;;;5082209;28;20206;-83
2020/12/20 11:01:17;;;;;;;4.72;3.38;;;17.50;60.30;;;;;;5081979;28;20193;-83
2020/12/20 11:03:45;;;;;;;5.55;3.63;;;17.50;60.30;;;;;;5063964;28;20613;-82
2020/12/20 11:06:22;;;;;;;5.50;3.63;;;17.50;60.30;;;;;;5081664;28;20224;-82
2020/12/20 11:08:49;;;;;;;5.35;3.60;;;17.40;60.30;;;;;;5063036;28;20523;-83
2020/12/20 11:11:17;;;;;;;4.82;3.50;;;17.50;60.40;;;;;;5082610;28;20161;-82
2020/12/20 11:13:44;;;;;;;5.07;3.30;;;17.40;60.30;;;;;;5080967;28;20160;-82
2020/12/20 11:16:14;;;;;;;6.03;3.78;;;17.50;60.50;;;;;;5081669;28;20165;-81
2020/12/20 11:18:48;;;;;;;6.13;3.40;;;17.40;60.50;;;;;;5062835;28;20164;-82
2020/12/20 11:21:16;;;;;;;5.22;3.65;;;17.40;60.50;;;;;;5062968;28;20189;-81
2020/12/20 11:23:43;;;;;;;5.28;4.07;;;17.40;60.50;;;;;;5063247;28;20153;-81
2020/12/20 11:26:21;;;;;;;4.80;3.63;;;17.50;60.70;;;;;;5081720;28;20165;-81
2020/12/20 11:28:50;;;;;;;5.47;3.55;;;17.50;60.40;;;;;;5063481;28;20148;-81
2020/12/20 11:31:27;;;;;;;6.03;3.53;;;17.40;60.60;;;;;;5063869;28;20528;-81
2020/12/20 11:33:53;;;;;;;6.13;3.65;;;17.40;60.30;;;;;;5063265;28;20149;-81
2020/12/20 11:36:24;;;;;;;4.93;3.60;;;17.50;60.40;;;;;;5080493;28;20601;-80
2020/12/20 11:38:49;;;;;;;5.85;3.25;;;17.50;60.40;;;;;;5079306;28;20691;-81
2020/12/20 11:41:25;;;;;;;5.40;3.30;;;17.40;60.50;;;;;;5081271;28;20242;-82
2020/12/20 11:43:53;;;;;;;5.47;3.67;;;17.40;60.60;;;;;;5062613;28;20165;-81
2020/12/20 11:46:20;;;;;;;5.75;3.50;;;17.40;60.50;;;;;;5081242;28;20182;-82
2020/12/20 11:48:47;;;;;;;5.32;3.38;;;17.40;60.50;;;;;;5042722;28;20252;-80
2020/12/20 11:51:15;;;;;;;4.68;3.55;;;17.40;60.40;;;;;;5078226;28;20158;-80
2020/12/20 11:53:41;;;;;;;4.50;3.53;;;17.50;60.40;;;;;;5080008;28;20149;-82
2020/12/20 11:56:09;;;;;;;7.88;3.88;;;17.50;60.60;;;;;;5061259;28;20176;-80
2020/12/20 11:58:35;;;;;;;5.63;3.70;;;17.50;60.40;;;;;;5062440;28;20161;-82
2020/12/20 12:01:02;;;;;;;7.03;3.97;;;17.50;60.50;;;;;;5059246;28;20185;-80
2020/12/20 12:03:28;;;;;;;7.15;3.60;;;17.50;60.50;;;;;;5081138;28;20182;-80
2020/12/20 12:06:06;;;;;;;5.95;3.45;;;17.50;60.40;;;;;;5066152;28;20157;-83
2020/12/20 12:08:32;;;;;;;5.63;3.53;;;17.60;60.30;;;;;;5086022;28;20149;-83
2020/12/20 12:11:06;;;;;;;6.32;3.65;;;17.50;60.60;;;;;;5083607;28;20191;-83
2020/12/20 12:13:34;;;;;;;7.45;3.38;;;17.60;60.60;;;;;;5066038;28;20153;-82
2020/12/20 12:16:02;;;;;;;4.90;3.75;;;17.60;60.30;;;;;;5084226;28;20158;-82
2020/12/20 12:18:29;;;;;;;6.28;3.67;;;17.50;60.50;;;;;;5064946;28;20154;-81
2020/12/20 12:21:11;;;;;;;7.22;3.83;;;17.50;60.50;;;;;;5083716;28;20185;-80
2020/12/20 12:23:42;;;;;;;5.63;3.55;;;17.50;60.70;;;;;;5082172;28;20511;-82
2020/12/20 12:26:09;;;;;;;6.32;3.70;;;17.40;60.70;;;;;;5081884;28;20163;-82
2020/12/20 12:28:36;;;;;;;7.38;3.83;;;17.50;60.90;;;;;;5082706;28;20180;-80
2020/12/20 12:31:14;;;;;;;8.15;3.85;;;17.40;60.70;;;;;;5083564;28;20188;-83
2020/12/20 12:33:41;;;;;;;6.15;4.00;;;17.50;60.60;;;;;;5065275;28;20256;-83
2020/12/20 12:36:07;;;;;;;6.55;3.90;;;17.50;60.60;;;;;;5082898;28;20166;-82
2020/12/20 12:38:33;;;;;;;6.20;3.90;;;17.60;60.30;;;;;;5083760;28;20270;-82
2020/12/20 12:41:08;;;;;;;5.05;3.67;;;17.60;60.30;;;;;;5083766;28;20280;-82
2020/12/20 12:43:34;;;;;;;6.68;3.85;;;17.60;60.70;;;;;;5064671;28;20150;-81
2020/12/20 12:46:01;;;;;;;6.05;3.92;;;17.60;60.40;;;;;;5086463;28;20248;-79
2020/12/20 12:48:35;;;;;;;5.82;3.80;;;17.60;60.50;;;;;;5088310;28;20169;-81
2020/12/20 12:51:02;;;;;;;6.10;4.10;;;17.60;60.10;;;;;;5087391;28;20154;-80
2020/12/20 12:53:29;;;;;;;7.50;4.05;;;17.60;60.20;;;;;;5088597;28;20176;-80
2020/12/20 12:55:55;;;;;;;5.95;3.85;;;17.70;60.20;;;;;;5069973;28;20158;-84
2020/12/20 12:58:27;;;;;;;5.72;4.00;;;17.70;60.30;;;;;;5088192;28;20157;-81
2020/12/20 13:00:53;;;;;;;6.40;4.15;;;17.60;60.30;;;;;;5084930;28;20197;-82
2020/12/20 13:03:19;;;;;;;6.75;3.95;;;17.60;60.40;;;;;;5066284;28;20594;-82